createdAt,value
2019-03-25T00:00:45.006Z,18.90
2019-03-25T00:03:14.443Z,19.37
2019-03-25T00:05:43.909Z,19.30
2019-03-25T00:08:13.381Z,19.17
2019-03-25T00:10:42.788Z,19.83
2019-03-25T00:13:12.574Z,19.20
2019-03-25T00:15:41.990Z,18.17
2019-03-25T00:18:11.434Z,18.37
2019-03-25T00:20:40.885Z,20.20
2019-03-25T00:23:10.327Z,18.93
2019-03-25T00:25:39.786Z,17.63
2019-03-25T00:28:09.221Z,18.17
2019-03-25T00:30:38.670Z,17.47
2019-03-25T00:33:08.113Z,16.47
2019-03-25T00:35:37.568Z,15.80
2019-03-25T00:38:07.011Z,15.87
2019-03-25T00:40:36.464Z,13.63
2019-03-25T00:43:05.906Z,13.17
2019-03-25T00:45:35.352Z,12.47
2019-03-25T00:48:04.790Z,11.73
2019-03-25T00:50:34.318Z,10.37
2019-03-25T00:53:03.754Z,9.97
2019-03-25T00:55:33.196Z,9.53
2019-03-25T00:58:02.633Z,9.73
2019-03-25T01:00:32.346Z,9.13
2019-03-25T01:03:01.785Z,9.60
2019-03-25T01:05:31.290Z,9.50
2019-03-25T01:08:00.718Z,8.47
2019-03-25T01:10:30.838Z,7.90
2019-03-25T01:13:00.270Z,8.60
2019-03-25T01:15:29.998Z,7.50
2019-03-25T01:17:59.430Z,8.50
2019-03-25T01:20:28.954Z,8.67
2019-03-25T01:22:58.384Z,7.43
2019-03-25T01:25:27.835Z,7.47
2019-03-25T01:27:57.266Z,7.60
2019-03-25T01:30:26.761Z,7.20
2019-03-25T01:32:56.196Z,7.00
2019-03-25T01:35:25.630Z,6.13
2019-03-25T01:37:55.066Z,5.90
2019-03-25T01:40:24.516Z,5.70
2019-03-25T01:42:53.951Z,4.83
2019-03-25T01:45:23.394Z,4.30
2019-03-25T01:47:52.832Z,4.90
2019-03-25T01:50:22.262Z,4.70
2019-03-25T01:52:51.711Z,5.00
2019-03-25T01:55:21.139Z,5.17
2019-03-25T01:57:50.582Z,4.60
2019-03-25T02:00:20.382Z,4.60
2019-03-25T02:02:49.898Z,4.27
2019-03-25T02:05:19.621Z,4.70
2019-03-25T02:07:49.055Z,5.17
2019-03-25T02:10:19.047Z,4.80
2019-03-25T02:12:48.481Z,4.67
2019-03-25T02:15:17.903Z,4.00
2019-03-25T02:17:47.343Z,4.07
2019-03-25T02:20:25.932Z,3.40
2019-03-25T02:22:48.064Z,3.70
2019-03-25T02:25:25.214Z,3.67
2019-03-25T02:27:48.722Z,3.70
2019-03-25T02:30:18.333Z,4.63
2019-03-25T02:32:47.767Z,3.60
2019-03-25T02:35:17.206Z,3.77
2019-03-25T02:37:46.635Z,3.90
2019-03-25T02:40:16.073Z,2.87
2019-03-25T02:42:45.517Z,3.07
2019-03-25T02:45:14.950Z,3.30
2019-03-25T02:47:44.397Z,2.67
2019-03-25T02:50:14.451Z,2.50
2019-03-25T02:52:43.893Z,2.90
2019-03-25T02:55:15.112Z,2.40
2019-03-25T02:57:44.562Z,2.40
2019-03-25T03:00:17.238Z,2.40
2019-03-25T03:02:47.075Z,2.67
2019-03-25T03:05:18.046Z,2.73
2019-03-25T03:07:47.492Z,2.83
2019-03-25T03:10:16.981Z,2.70
2019-03-25T03:12:46.424Z,2.53
2019-03-25T03:15:15.854Z,3.10
2019-03-25T03:17:45.552Z,3.10
2019-03-25T03:20:14.981Z,2.97
2019-03-25T03:22:44.424Z,3.73
2019-03-25T03:25:14.178Z,3.23
2019-03-25T03:27:43.618Z,3.67
2019-03-25T03:30:13.188Z,3.40
2019-03-25T03:32:42.639Z,3.27
2019-03-25T03:35:12.149Z,3.80
2019-03-25T03:37:41.578Z,3.50
2019-03-25T03:40:11.150Z,3.60
2019-03-25T03:42:40.653Z,3.93
2019-03-25T03:45:10.485Z,3.57
2019-03-25T03:47:40.247Z,3.50
2019-03-25T03:50:14.118Z,3.13
2019-03-25T03:52:43.701Z,3.53
2019-03-25T03:55:15.657Z,3.10
2019-03-25T03:57:45.002Z,3.30
2019-03-25T04:00:28.199Z,3.70
2019-03-25T04:02:57.639Z,3.60
2019-03-25T04:05:27.082Z,3.50
2019-03-25T04:07:56.584Z,3.13
2019-03-25T04:10:26.072Z,3.20
2019-03-25T04:12:55.517Z,3.63
2019-03-25T04:15:32.171Z,2.90
2019-03-25T04:18:02.080Z,3.20
2019-03-25T04:20:31.858Z,3.37
2019-03-25T04:23:01.294Z,2.80
2019-03-25T04:25:30.716Z,3.30
2019-03-25T04:28:00.155Z,3.57
2019-03-25T04:30:29.657Z,2.90
2019-03-25T04:32:59.168Z,3.53
2019-03-25T04:35:28.599Z,2.63
2019-03-25T04:37:58.059Z,3.53
2019-03-25T04:40:27.468Z,3.17
2019-03-25T04:42:56.913Z,3.40
2019-03-25T04:45:26.344Z,2.80
2019-03-25T04:47:55.790Z,3.50
2019-03-25T04:50:25.233Z,3.23
2019-03-25T04:52:54.669Z,3.40
2019-03-25T04:55:24.473Z,3.07
2019-03-25T04:57:53.906Z,3.87
2019-03-25T05:00:37.050Z,4.20
2019-03-25T05:03:06.722Z,4.03
2019-03-25T05:05:36.424Z,5.10
2019-03-25T05:08:05.973Z,5.50
2019-03-25T05:10:35.395Z,5.40
2019-03-25T05:13:04.838Z,5.10
2019-03-25T05:15:34.268Z,6.10
2019-03-25T05:18:03.712Z,5.90
2019-03-25T05:20:33.139Z,6.03
2019-03-25T05:23:02.868Z,5.40
2019-03-25T05:25:32.298Z,5.37
2019-03-25T05:28:01.734Z,5.17
2019-03-25T05:30:31.167Z,5.10
2019-03-25T05:33:00.605Z,4.67
2019-03-25T05:35:30.042Z,5.20
2019-03-25T05:37:59.477Z,4.70
2019-03-25T05:40:28.901Z,4.67
2019-03-25T05:42:58.713Z,4.80
2019-03-25T05:45:28.141Z,5.37
2019-03-25T05:47:57.586Z,5.07
2019-03-25T05:50:27.012Z,4.57
2019-03-25T05:52:56.450Z,4.60
2019-03-25T05:55:25.878Z,4.53
2019-03-25T05:57:55.325Z,5.10
2019-03-25T06:00:26.384Z,4.77
2019-03-25T06:02:55.813Z,4.37
2019-03-25T06:05:25.240Z,5.20
2019-03-25T06:07:54.683Z,4.70
2019-03-25T06:10:24.114Z,4.90
2019-03-25T06:12:53.549Z,5.03
2019-03-25T06:15:22.974Z,5.00
2019-03-25T06:17:52.406Z,4.83
2019-03-25T06:20:21.852Z,4.57
2019-03-25T06:22:51.429Z,4.33
2019-03-25T06:25:20.901Z,4.47
2019-03-25T06:27:50.297Z,5.23
2019-03-25T06:30:20.222Z,5.07
2019-03-25T06:32:49.641Z,4.83
2019-03-25T06:35:19.090Z,3.93
2019-03-25T06:37:48.510Z,4.17
2019-03-25T06:40:18.153Z,4.07
2019-03-25T06:42:47.590Z,4.43
2019-03-25T06:45:17.614Z,3.80
2019-03-25T06:47:47.053Z,4.23
2019-03-25T06:50:16.558Z,4.50
2019-03-25T06:52:45.980Z,4.20
2019-03-25T06:55:15.417Z,4.30
2019-03-25T06:57:44.852Z,3.67
2019-03-25T07:00:14.434Z,4.10
2019-03-25T07:02:43.869Z,4.53
2019-03-25T07:05:13.756Z,3.83
2019-03-25T07:07:43.174Z,4.30
2019-03-25T07:10:12.871Z,3.90
2019-03-25T07:12:42.282Z,4.00
2019-03-25T07:15:12.061Z,4.27
2019-03-25T07:17:41.487Z,4.37
2019-03-25T07:20:12.466Z,4.07
2019-03-25T07:22:41.903Z,4.20
2019-03-25T07:25:11.337Z,4.17
2019-03-25T07:27:40.771Z,3.87
2019-03-25T07:30:11.591Z,4.47
2019-03-25T07:32:41.114Z,4.00
2019-03-25T07:35:10.749Z,3.60
2019-03-25T07:37:40.188Z,4.47
2019-03-25T07:40:11.538Z,3.73
2019-03-25T07:42:42.918Z,3.90
2019-03-25T07:45:32.993Z,3.83
2019-03-25T07:48:04.178Z,3.63
2019-03-25T07:50:33.746Z,4.20
2019-03-25T07:53:03.188Z,4.17
2019-03-25T07:55:32.633Z,3.67
2019-03-25T07:58:02.067Z,3.63
2019-03-25T08:00:31.519Z,3.70
2019-03-25T08:03:01.098Z,4.40
2019-03-25T08:05:30.557Z,3.97
2019-03-25T08:08:00.020Z,3.80
2019-03-25T08:10:34.955Z,3.67
2019-03-25T08:13:04.703Z,3.77
2019-03-25T08:15:34.415Z,5.23
2019-03-25T08:18:04.845Z,3.80
2019-03-25T08:20:34.281Z,3.63
2019-03-25T08:23:03.786Z,3.30
2019-03-25T08:25:33.235Z,3.60
2019-03-25T08:28:02.806Z,4.83
2019-03-25T08:30:32.329Z,3.40
2019-03-25T08:33:01.756Z,3.63
2019-03-25T08:35:31.199Z,3.60
2019-03-25T08:38:00.985Z,3.10
2019-03-25T08:40:30.442Z,2.80
2019-03-25T08:42:59.880Z,2.70
2019-03-25T08:45:29.327Z,2.80
2019-03-25T08:47:58.759Z,2.33
2019-03-25T08:50:28.182Z,2.67
2019-03-25T08:52:57.645Z,2.50
2019-03-25T08:55:27.140Z,2.20
2019-03-25T08:57:56.653Z,2.87
2019-03-25T09:00:26.084Z,2.40
2019-03-25T09:02:55.525Z,2.57
2019-03-25T09:05:24.962Z,2.57
2019-03-25T09:07:54.888Z,2.63
2019-03-25T09:10:24.463Z,2.60
2019-03-25T09:12:53.895Z,2.60
2019-03-25T09:15:23.389Z,2.93
2019-03-25T09:17:52.829Z,1.97
2019-03-25T09:20:22.261Z,2.00
2019-03-25T09:22:51.702Z,2.40
2019-03-25T09:25:21.134Z,2.10
2019-03-25T09:27:50.570Z,2.30
2019-03-25T09:30:56.846Z,2.93
2019-03-25T09:33:26.311Z,1.70
2019-03-25T09:35:55.740Z,1.97
2019-03-25T09:38:25.247Z,2.10
2019-03-25T09:40:54.686Z,1.50
2019-03-25T09:43:24.125Z,1.53
2019-03-25T09:45:53.547Z,1.53
2019-03-25T09:48:22.995Z,2.27
2019-03-25T09:50:52.433Z,2.27
2019-03-25T09:53:21.871Z,1.60
2019-03-25T09:55:51.302Z,2.33
2019-03-25T09:58:20.999Z,1.90
2019-03-25T10:00:52.153Z,1.40
2019-03-25T10:03:21.770Z,1.40
2019-03-25T10:05:51.201Z,1.67
2019-03-25T10:08:20.643Z,1.40
2019-03-25T10:10:50.307Z,1.40
2019-03-25T10:13:19.748Z,1.70
2019-03-25T10:15:49.246Z,1.67
2019-03-25T10:18:18.689Z,2.37
2019-03-25T10:20:48.117Z,2.00
2019-03-25T10:23:17.557Z,2.30
2019-03-25T10:25:46.997Z,1.97
2019-03-25T10:28:16.426Z,2.07
2019-03-25T10:30:45.880Z,2.27
2019-03-25T10:33:15.310Z,1.83
2019-03-25T10:35:44.746Z,2.30
2019-03-25T10:38:19.475Z,2.07
2019-03-25T10:40:45.351Z,2.43
2019-03-25T10:43:14.859Z,2.70
2019-03-25T10:45:44.291Z,3.00
2019-03-25T10:48:13.728Z,2.13
2019-03-25T10:50:43.830Z,2.90
2019-03-25T10:53:13.262Z,2.50
2019-03-25T10:55:42.718Z,2.57
2019-03-25T10:58:12.164Z,2.53
2019-03-25T11:00:41.600Z,2.93
2019-03-25T11:03:11.115Z,2.70
2019-03-25T11:05:40.551Z,2.40
2019-03-25T11:08:09.993Z,2.70
2019-03-25T11:10:39.432Z,2.70
2019-03-25T11:13:08.865Z,2.60
2019-03-25T11:15:38.298Z,2.50
2019-03-25T11:18:07.741Z,2.47
2019-03-25T11:20:37.199Z,2.40
2019-03-25T11:23:07.104Z,2.60
2019-03-25T11:25:36.528Z,2.47
2019-03-25T11:28:05.978Z,2.77
2019-03-25T11:30:54.309Z,2.50
2019-03-25T11:33:24.912Z,2.60
2019-03-25T11:35:54.401Z,2.60
2019-03-25T11:38:25.128Z,2.57
2019-03-25T11:40:54.562Z,2.07
2019-03-25T11:43:24.001Z,2.50
2019-03-25T11:45:53.700Z,3.10
2019-03-25T11:48:23.145Z,2.63
2019-03-25T11:50:52.586Z,2.33
2019-03-25T11:53:22.090Z,2.50
2019-03-25T11:55:51.531Z,2.40
2019-03-25T11:58:20.969Z,2.43
2019-03-25T12:00:50.977Z,2.83
2019-03-25T12:03:20.433Z,3.20
2019-03-25T12:05:49.863Z,3.07
2019-03-25T12:08:19.374Z,2.70
2019-03-25T12:10:48.812Z,2.80
2019-03-25T12:13:18.328Z,2.90
2019-03-25T12:15:48.037Z,2.67
2019-03-25T12:18:17.494Z,2.77
2019-03-25T12:20:46.924Z,2.80
2019-03-25T12:23:25.775Z,2.50
2019-03-25T12:25:47.524Z,2.30
2019-03-25T12:28:16.971Z,2.33
2019-03-25T12:30:46.404Z,2.43
2019-03-25T12:33:15.850Z,3.27
2019-03-25T12:35:45.285Z,2.80
2019-03-25T12:38:14.881Z,2.60
2019-03-25T12:40:44.410Z,2.43
2019-03-25T12:43:13.858Z,2.40
2019-03-25T12:45:43.364Z,2.23
2019-03-25T12:48:12.814Z,1.90
2019-03-25T12:50:42.250Z,1.90
2019-03-25T12:53:11.697Z,1.77
2019-03-25T12:55:41.186Z,1.83
2019-03-25T12:58:10.627Z,1.70
2019-03-25T13:00:42.477Z,1.77
2019-03-25T13:03:11.916Z,1.60
2019-03-25T13:05:41.491Z,1.90
2019-03-25T13:08:10.937Z,1.67
2019-03-25T13:10:40.362Z,2.00
2019-03-25T13:13:09.942Z,2.37
2019-03-25T13:15:39.399Z,1.93
2019-03-25T13:18:08.845Z,1.80
2019-03-25T13:20:38.280Z,2.07
2019-03-25T13:23:07.785Z,2.23
2019-03-25T13:25:39.372Z,2.10
2019-03-25T13:28:08.409Z,1.90
2019-03-25T13:30:37.857Z,1.93
2019-03-25T13:33:07.291Z,1.80
2019-03-25T13:35:36.737Z,2.17
2019-03-25T13:38:06.162Z,1.63
2019-03-25T13:40:35.671Z,2.20
2019-03-25T13:43:05.101Z,2.60
2019-03-25T13:45:34.541Z,1.90
2019-03-25T13:48:03.986Z,2.27
2019-03-25T13:50:33.429Z,2.43
2019-03-25T13:53:02.875Z,2.10
2019-03-25T13:55:32.301Z,2.23
2019-03-25T13:58:02.106Z,2.30
2019-03-25T14:01:27.666Z,2.17
2019-03-25T14:03:57.096Z,1.83
2019-03-25T14:06:26.538Z,2.30
2019-03-25T14:08:55.976Z,1.77
2019-03-25T14:11:25.497Z,2.00
2019-03-25T14:13:54.924Z,1.93
2019-03-25T14:16:24.371Z,1.47
2019-03-25T14:18:53.817Z,1.70
2019-03-25T14:21:23.319Z,1.63
2019-03-25T14:23:52.752Z,2.30
2019-03-25T14:26:22.187Z,1.37
2019-03-25T14:28:51.628Z,1.57
2019-03-25T14:31:21.058Z,1.80
2019-03-25T14:33:50.506Z,1.53
2019-03-25T14:36:20.200Z,1.90
2019-03-25T14:38:49.650Z,1.67
2019-03-25T14:41:19.073Z,1.50
2019-03-25T14:43:48.511Z,1.77
2019-03-25T14:46:17.950Z,1.77
2019-03-25T14:48:47.383Z,1.70
2019-03-25T14:51:16.809Z,1.50
2019-03-25T14:53:46.256Z,1.77
2019-03-25T14:56:16.051Z,1.40
2019-03-25T14:58:45.511Z,1.30
2019-03-25T15:01:14.952Z,1.90
2019-03-25T15:03:44.457Z,1.50
2019-03-25T15:06:13.886Z,1.70
2019-03-25T15:08:43.334Z,1.73
2019-03-25T15:11:12.763Z,1.53
2019-03-25T15:13:42.204Z,1.50
2019-03-25T15:16:11.652Z,1.70
2019-03-25T15:18:41.086Z,1.90
2019-03-25T15:21:10.519Z,1.67
2019-03-25T15:23:40.213Z,1.60
2019-03-25T15:26:09.723Z,1.63
2019-03-25T15:28:39.173Z,1.37
2019-03-25T15:31:08.678Z,1.60
2019-03-25T15:33:38.115Z,1.33
2019-03-25T15:36:07.545Z,1.10
2019-03-25T15:38:36.997Z,1.20
2019-03-25T15:41:06.862Z,1.30
2019-03-25T15:43:36.323Z,1.40
2019-03-25T15:46:05.754Z,1.20
2019-03-25T15:48:35.195Z,1.23
2019-03-25T15:51:04.638Z,1.33
2019-03-25T15:53:34.104Z,1.40
2019-03-25T15:56:03.552Z,1.00
2019-03-25T15:58:33.003Z,1.37
2019-03-25T16:01:02.456Z,1.20
2019-03-25T16:03:31.915Z,1.27
2019-03-25T16:06:01.364Z,1.13
2019-03-25T16:08:31.132Z,0.90
2019-03-25T16:11:00.571Z,1.20
2019-03-25T16:13:30.061Z,1.23
2019-03-25T16:15:59.487Z,0.87
2019-03-25T16:18:35.034Z,1.03
2019-03-25T16:21:04.657Z,1.03
2019-03-25T16:23:34.112Z,1.20
2019-03-25T16:26:03.631Z,1.00
2019-03-25T16:28:33.446Z,0.60
2019-03-25T16:31:03.696Z,0.67
2019-03-25T16:33:33.140Z,0.60
2019-03-25T16:36:02.565Z,0.60
2019-03-25T16:38:32.191Z,0.40
2019-03-25T16:41:01.629Z,0.50
2019-03-25T16:43:31.184Z,0.97
2019-03-25T16:46:00.622Z,0.80
2019-03-25T16:48:30.066Z,0.60
2019-03-25T16:50:59.507Z,0.70
2019-03-25T16:53:28.943Z,0.60
2019-03-25T16:55:58.369Z,0.60
2019-03-25T16:58:27.809Z,0.40
2019-03-25T17:00:57.230Z,0.20
2019-03-25T17:03:47.682Z,0.30
2019-03-25T17:06:17.932Z,0.33
2019-03-25T17:08:47.370Z,0.23
2019-03-25T17:11:16.794Z,0.50
2019-03-25T17:13:46.246Z,0.60
2019-03-25T17:16:15.969Z,0.60
2019-03-25T17:18:45.405Z,0.40
2019-03-25T17:21:14.830Z,0.40
2019-03-25T17:23:44.275Z,0.40
2019-03-25T17:26:13.694Z,0.50
2019-03-25T17:28:43.144Z,0.40
2019-03-25T17:31:20.619Z,0.47
2019-03-25T17:33:43.722Z,0.43
2019-03-25T17:36:13.147Z,0.40
2019-03-25T17:38:42.595Z,0.40
2019-03-25T17:41:12.028Z,0.60
2019-03-25T17:43:41.468Z,0.40
2019-03-25T17:46:10.895Z,0.43
2019-03-25T17:48:40.336Z,0.60
2019-03-25T17:51:10.085Z,0.50
2019-03-25T17:53:39.528Z,0.50
2019-03-25T17:56:08.947Z,0.43
2019-03-25T17:58:38.392Z,0.50
2019-03-25T18:01:09.693Z,0.60
2019-03-25T18:03:39.122Z,0.60
2019-03-25T18:06:08.550Z,0.90
2019-03-25T18:08:38.008Z,0.60
2019-03-25T18:11:07.422Z,0.83
2019-03-25T18:13:36.850Z,0.90
2019-03-25T18:16:06.310Z,0.47
2019-03-25T18:18:35.719Z,0.80
2019-03-25T18:21:05.155Z,0.90
2019-03-25T18:23:34.603Z,0.93
2019-03-25T18:26:04.166Z,0.80
2019-03-25T18:28:33.586Z,0.70
2019-03-25T18:31:03.298Z,0.47
2019-03-25T18:33:32.716Z,0.67
2019-03-25T18:36:02.150Z,0.67
2019-03-25T18:38:31.577Z,0.60
2019-03-25T18:41:01.014Z,0.80
2019-03-25T18:43:30.431Z,1.10
2019-03-25T18:45:59.877Z,1.30
2019-03-25T18:48:29.558Z,1.40
2019-03-25T18:50:58.985Z,1.50
2019-03-25T18:53:28.676Z,1.53
2019-03-25T18:55:58.181Z,1.40
2019-03-25T18:58:27.603Z,1.30
2019-03-25T19:00:57.045Z,1.30
2019-03-25T19:03:26.469Z,1.33
2019-03-25T19:05:55.919Z,1.77
2019-03-25T19:08:25.347Z,2.10
2019-03-25T19:10:54.772Z,1.70
2019-03-25T19:13:24.205Z,2.00
2019-03-25T19:15:53.718Z,2.00
2019-03-25T19:18:23.160Z,2.00
2019-03-25T19:20:52.595Z,1.80
2019-03-25T19:23:22.017Z,1.70
2019-03-25T19:25:51.451Z,1.80
2019-03-25T19:28:20.882Z,1.87
2019-03-25T19:30:50.655Z,1.70
2019-03-25T19:33:20.096Z,1.83
2019-03-25T19:35:49.555Z,2.13
2019-03-25T19:38:18.959Z,1.97
2019-03-25T19:40:48.424Z,1.60
2019-03-25T19:43:17.825Z,1.77
2019-03-25T19:45:47.257Z,1.97
2019-03-25T19:48:16.714Z,1.60
2019-03-25T19:50:46.109Z,2.00
2019-03-25T19:53:19.453Z,1.73
2019-03-25T19:55:46.692Z,1.60
2019-03-25T19:58:16.130Z,2.10
2019-03-25T20:00:45.600Z,2.00
2019-03-25T20:03:14.997Z,2.20
2019-03-25T20:05:44.438Z,1.90
2019-03-25T20:08:13.868Z,2.03
2019-03-25T20:10:43.299Z,2.20
2019-03-25T20:13:12.737Z,2.13
2019-03-25T20:15:46.560Z,2.40
2019-03-25T20:18:13.366Z,3.03
2019-03-25T20:20:42.741Z,1.97
2019-03-25T20:23:12.221Z,2.13
2019-03-25T20:25:41.608Z,1.80
2019-03-25T20:28:11.051Z,1.93
2019-03-25T20:30:40.773Z,1.23
2019-03-25T20:33:10.208Z,0.70
2019-03-25T20:35:39.740Z,0.97
2019-03-25T20:38:09.153Z,0.80
2019-03-25T20:40:38.583Z,0.80
2019-03-25T20:43:08.025Z,0.83
2019-03-25T20:45:37.451Z,1.00
2019-03-25T20:48:06.885Z,1.00
2019-03-25T20:50:36.350Z,0.97
2019-03-25T20:53:05.818Z,0.90
2019-03-25T20:55:35.679Z,0.93
2019-03-25T20:58:05.151Z,1.00
2019-03-25T21:00:55.555Z,0.90
2019-03-25T21:03:25.356Z,1.00
2019-03-25T21:05:54.796Z,0.90
2019-03-25T21:08:24.212Z,1.07
2019-03-25T21:10:53.663Z,1.20
2019-03-25T21:13:23.137Z,1.40
2019-03-25T21:15:52.667Z,1.47
2019-03-25T21:18:22.137Z,1.67
2019-03-25T21:20:51.549Z,1.70
2019-03-25T21:23:20.967Z,2.00
2019-03-25T21:25:50.396Z,1.93
2019-03-25T21:28:19.830Z,1.67
2019-03-25T21:30:49.268Z,1.83
2019-03-25T21:33:18.711Z,1.43
2019-03-25T21:35:48.221Z,2.00
2019-03-25T21:38:17.675Z,1.70
2019-03-25T21:40:47.158Z,2.03
2019-03-25T21:43:16.678Z,2.00
2019-03-25T21:45:46.124Z,1.90
2019-03-25T21:48:15.583Z,2.23
2019-03-25T21:50:45.037Z,1.97
2019-03-25T21:53:14.455Z,2.17
2019-03-25T21:55:44.024Z,1.83
2019-03-25T21:58:13.750Z,2.30
2019-03-25T22:00:43.216Z,2.63
2019-03-25T22:03:12.887Z,2.60
2019-03-25T22:05:42.322Z,2.80
2019-03-25T22:08:11.759Z,2.60
2019-03-25T22:10:43.030Z,2.90
2019-03-25T22:13:12.353Z,2.47
2019-03-25T22:15:41.776Z,2.73
2019-03-25T22:18:11.786Z,2.87
2019-03-25T22:20:41.222Z,2.77
2019-03-25T22:23:10.994Z,2.57
2019-03-25T22:25:40.417Z,2.80
2019-03-25T22:28:09.861Z,3.20
2019-03-25T22:30:39.298Z,3.33
2019-03-25T22:33:08.733Z,3.33
2019-03-25T22:35:38.157Z,3.67
2019-03-25T22:38:07.659Z,3.60
2019-03-25T22:40:37.102Z,3.60
2019-03-25T22:43:06.548Z,4.10
2019-03-25T22:45:35.982Z,4.03
2019-03-25T22:48:07.339Z,4.40
2019-03-25T22:50:37.160Z,4.30
2019-03-25T22:53:06.602Z,4.27
2019-03-25T22:55:36.303Z,4.10
2019-03-25T22:58:05.734Z,3.77
2019-03-25T23:00:42.643Z,4.33
2019-03-25T23:03:12.088Z,4.10
2019-03-25T23:05:41.505Z,4.23
2019-03-25T23:08:10.938Z,4.60
2019-03-25T23:10:40.362Z,4.43
2019-03-25T23:13:09.795Z,5.17
2019-03-25T23:15:39.230Z,5.17
2019-03-25T23:18:08.657Z,5.03
2019-03-25T23:20:38.098Z,4.97
2019-03-25T23:23:07.523Z,5.70
2019-03-25T23:25:36.966Z,5.90
2019-03-25T23:28:06.401Z,5.27
2019-03-25T23:30:35.850Z,5.70
2019-03-25T23:33:05.284Z,5.50
2019-03-25T23:35:34.795Z,6.10
2019-03-25T23:38:04.227Z,5.60
2019-03-25T23:40:33.674Z,5.77
2019-03-25T23:43:03.100Z,6.17
2019-03-25T23:45:32.534Z,5.80
2019-03-25T23:48:02.002Z,5.90
2019-03-25T23:50:31.452Z,5.57
2019-03-25T23:53:00.876Z,5.50
2019-03-25T23:55:30.332Z,5.90
2019-03-25T23:57:59.764Z,6.27
